Time;durP1;ratioP1;P1;durP2;ratioP2;P2;SDS_P1;SDS_P2;PMS_P1;PMS_P2;Temp;Humidity;BMP_temperature;BMP_pressure;BME280_temperature;BME280_humidity;BME280_pressure;Samples;Min_cycle;Max_cycle;Signal;HPM_P1;HPM_P2
2023/12/28 00:00:57;;;;;;;51.47;24.40;;;-1.00;99.90;;;;;;4192987;28;20291;-61
2023/12/28 00:02:59;;;;;;;51.87;25.17;;;-1.00;99.90;;;;;;4190977;28;20386;-61
2023/12/28 00:05:00;;;;;;;48.03;22.70;;;-1.00;99.90;;;;;;4193280;28;20318;-61
2023/12/28 00:07:02;;;;;;;55.77;24.67;;;-1.00;99.90;;;;;;4192167;28;20311;-61
2023/12/28 00:09:04;;;;;;;49.77;24.13;;;-1.00;99.90;;;;;;4192770;28;20301;-61
2023/12/28 00:11:05;;;;;;;48.43;24.00;;;-1.00;99.90;;;;;;4192040;28;20322;-61
2023/12/28 00:13:06;;;;;;;42.73;22.03;;;-0.90;99.90;;;;;;4192801;28;20335;-61
2023/12/28 00:15:08;;;;;;;51.13;23.60;;;-0.90;99.90;;;;;;4192054;28;20300;-61
2023/12/28 00:17:09;;;;;;;46.53;22.07;;;-0.90;99.90;;;;;;4193643;28;20273;-61
2023/12/28 00:19:10;;;;;;;43.27;21.67;;;-1.00;99.90;;;;;;4191434;28;20738;-61
2023/12/28 00:21:11;;;;;;;47.13;20.23;;;-1.10;99.90;;;;;;4193229;28;20806;-60
2023/12/28 00:23:13;;;;;;;46.43;20.07;;;-1.10;99.90;;;;;;4191578;28;20265;-60
2023/12/28 00:25:14;;;;;;;37.37;18.37;;;-1.20;99.90;;;;;;4192411;28;20278;-60
2023/12/28 00:27:15;;;;;;;41.90;20.50;;;-1.20;99.90;;;;;;4191927;28;20241;-59
2023/12/28 00:29:16;;;;;;;40.43;18.93;;;-1.20;99.90;;;;;;4192661;28;20292;-60
2023/12/28 00:31:17;;;;;;;36.27;18.67;;;-1.20;99.90;;;;;;4192708;28;20303;-61
2023/12/28 00:33:18;;;;;;;40.73;19.53;;;-1.10;99.90;;;;;;4191964;28;20755;-60
2023/12/28 00:35:20;;;;;;;39.33;19.37;;;-1.10;99.90;;;;;;4193207;28;20269;-61
2023/12/28 00:37:21;;;;;;;42.17;19.40;;;-1.10;99.90;;;;;;4191784;28;20738;-61
2023/12/28 00:39:22;;;;;;;37.20;18.93;;;-1.20;99.90;;;;;;4192630;28;20710;-61
2023/12/28 00:41:23;;;;;;;39.20;19.20;;;-1.20;99.90;;;;;;4173898;28;20262;-60
2023/12/28 00:43:24;;;;;;;38.23;19.60;;;-1.20;99.90;;;;;;4193486;28;20749;-60
2023/12/28 00:45:26;;;;;;;38.67;18.60;;;-1.30;99.90;;;;;;4191149;28;20331;-60
2023/12/28 00:47:27;;;;;;;34.97;18.40;;;-1.30;99.90;;;;;;4192231;28;20362;-60
2023/12/28 00:49:28;;;;;;;39.77;18.73;;;-1.30;99.90;;;;;;4191641;28;20571;-60
2023/12/28 00:51:29;;;;;;;41.17;19.33;;;-1.30;99.90;;;;;;4193572;28;20273;-60
2023/12/28 00:53:31;;;;;;;40.03;19.33;;;-1.30;99.90;;;;;;4191836;28;20269;-60
2023/12/28 00:55:32;;;;;;;44.30;19.27;;;-1.20;99.90;;;;;;4192361;28;20323;-60
2023/12/28 00:57:33;;;;;;;39.80;19.17;;;-1.30;99.90;;;;;;4191256;28;20705;-60
2023/12/28 00:59:34;;;;;;;39.00;17.77;;;-1.30;99.90;;;;;;4192410;28;20806;-60
2023/12/28 01:01:36;;;;;;;39.40;19.77;;;-1.30;99.90;;;;;;4195380;28;20269;-60
2023/12/28 01:03:37;;;;;;;42.03;19.50;;;-1.30;99.90;;;;;;4194309;28;20832;-61
2023/12/28 01:05:38;;;;;;;37.83;19.73;;;-1.30;99.90;;;;;;4195152;28;20807;-59
2023/12/28 01:07:39;;;;;;;41.80;20.30;;;-1.40;99.90;;;;;;4194718;28;20777;-59
2023/12/28 01:09:40;;;;;;;48.03;21.10;;;-1.50;99.90;;;;;;4196000;28;20297;-60
2023/12/28 01:11:41;;;;;;;44.97;21.47;;;-1.50;99.90;;;;;;4193936;28;20323;-60
2023/12/28 01:13:43;;;;;;;50.40;22.37;;;-1.60;99.90;;;;;;4196187;28;20265;-61
2023/12/28 01:15:44;;;;;;;47.13;22.67;;;-1.60;99.90;;;;;;4193835;28;20285;-60
2023/12/28 01:17:45;;;;;;;41.93;21.77;;;-1.60;99.90;;;;;;4195801;28;20270;-60
2023/12/28 01:19:46;;;;;;;41.63;19.90;;;-1.60;99.90;;;;;;4193826;28;20761;-59
2023/12/28 01:21:48;;;;;;;43.53;22.20;;;-1.60;99.90;;;;;;4196597;28;20281;-60
2023/12/28 01:23:49;;;;;;;45.93;22.77;;;-1.50;99.90;;;;;;4193887;28;20758;-60
2023/12/28 01:25:50;;;;;;;46.57;23.37;;;-1.50;99.90;;;;;;4195238;28;20277;-60
2023/12/28 01:27:51;;;;;;;51.03;23.70;;;-1.60;99.90;;;;;;4194051;28;20254;-60
2023/12/28 01:29:52;;;;;;;45.13;23.10;;;-1.50;99.90;;;;;;4194324;28;20297;-59
2023/12/28 01:31:53;;;;;;;48.90;24.17;;;-1.50;99.90;;;;;;4195136;28;20253;-59
2023/12/28 01:33:54;;;;;;;56.27;24.63;;;-1.50;99.90;;;;;;4193837;28;20261;-60
2023/12/28 01:35:56;;;;;;;52.40;23.73;;;-1.50;99.90;;;;;;4195296;28;20266;-60
2023/12/28 01:37:57;;;;;;;45.73;21.67;;;-1.50;99.90;;;;;;4193558;28;20319;-59
2023/12/28 01:39:58;;;;;;;45.37;22.07;;;-1.50;99.90;;;;;;4195609;28;20253;-60
2023/12/28 01:41:59;;;;;;;49.60;25.43;;;-1.50;99.90;;;;;;4194172;28;20330;-59
2023/12/28 01:44:00;;;;;;;47.50;23.57;;;-1.50;99.90;;;;;;4195722;28;20369;-59
2023/12/28 01:46:02;;;;;;;47.33;21.90;;;-1.60;99.90;;;;;;4193096;28;20346;-59
2023/12/28 01:48:04;;;;;;;46.00;22.37;;;-1.60;99.90;;;;;;4195617;28;20281;-59
2023/12/28 01:50:06;;;;;;;66.90;32.23;;;-1.60;99.90;;;;;;4175473;28;20369;-59
2023/12/28 01:52:08;;;;;;;75.97;35.60;;;-1.60;99.90;;;;;;4196182;28;20323;-59
2023/12/28 01:54:09;;;;;;;56.53;27.07;;;-1.60;99.90;;;;;;4193316;28;20272;-59
2023/12/28 01:56:11;;;;;;;45.23;21.03;;;-1.70;99.90;;;;;;4195479;28;20327;-59
2023/12/28 01:58:12;;;;;;;41.30;20.17;;;-1.70;99.90;;;;;;4194132;28;20279;-59
2023/12/28 02:00:14;;;;;;;36.37;17.37;;;-1.80;99.90;;;;;;4194117;28;20258;-60
2023/12/28 02:02:15;;;;;;;41.47;18.87;;;-1.80;99.90;;;;;;4193371;28;20277;-59
2023/12/28 02:04:17;;;;;;;46.00;21.17;;;-1.80;99.90;;;;;;4193069;28;20285;-60
2023/12/28 02:06:21;;;;;;;41.33;19.33;;;-1.90;99.90;;;;;;4195033;28;20261;-60
2023/12/28 02:08:23;;;;;;;34.67;16.80;;;-1.80;99.90;;;;;;4193067;28;20262;-60
2023/12/28 02:10:24;;;;;;;39.97;17.73;;;-1.80;99.90;;;;;;4195119;28;20293;-60
2023/12/28 02:12:25;;;;;;;33.87;16.93;;;-1.90;99.90;;;;;;4192700;28;20675;-60
2023/12/28 02:14:26;;;;;;;36.77;17.97;;;-1.90;99.90;;;;;;4194446;28;20591;-60
2023/12/28 02:16:39;;;;;;;35.07;16.53;;;-1.90;99.90;;;;;;4193607;28;20608;-59
2023/12/28 02:18:44;;;;;;;32.00;15.37;;;-1.90;99.90;;;;;;4195037;28;20318;-59
2023/12/28 02:20:46;;;;;;;33.43;17.20;;;-2.00;99.90;;;;;;4192761;28;20339;-58
2023/12/28 02:22:48;;;;;;;34.93;17.83;;;-1.90;99.90;;;;;;4194891;28;20319;-59
2023/12/28 02:25:13;;;;;;;34.30;17.10;;;-2.00;99.90;;;;;;4193393;28;20258;-59
2023/12/28 02:27:14;;;;;;;30.83;16.17;;;-2.10;99.90;;;;;;4195025;28;20315;-63
2023/12/28 02:29:15;;;;;;;32.20;16.40;;;-2.20;99.90;;;;;;4193438;28;20320;-60
2023/12/28 02:31:23;;;;;;;36.47;18.27;;;-2.10;99.90;;;;;;4194810;28;20656;-60
2023/12/28 02:33:37;;;;;;;38.70;18.80;;;-2.10;99.90;;;;;;4193464;28;20273;-60
2023/12/28 02:36:02;;;;;;;42.40;18.53;;;-2.10;99.90;;;;;;4194875;28;20277;-59
2023/12/28 02:38:07;;;;;;;43.80;19.20;;;-2.10;99.90;;;;;;4193376;28;20265;-60
2023/12/28 02:40:09;;;;;;;33.97;17.40;;;-2.20;99.90;;;;;;4194401;28;20269;-59
2023/12/28 02:42:11;;;;;;;39.03;17.27;;;-2.20;99.90;;;;;;4193147;28;20322;-60
2023/12/28 02:44:14;;;;;;;40.47;19.13;;;-2.20;99.90;;;;;;4194887;28;20269;-60
2023/12/28 02:46:15;;;;;;;36.20;19.67;;;-2.20;99.90;;;;;;4193374;28;20663;-59
2023/12/28 02:48:16;;;;;;;30.53;17.37;;;-2.20;99.90;;;;;;4194707;28;20657;-59
2023/12/28 02:50:17;;;;;;;39.93;18.77;;;-2.10;99.90;;;;;;4192814;28;20335;-60
2023/12/28 02:52:18;;;;;;;34.40;17.53;;;-2.10;99.90;;;;;;4194466;28;20285;-60
2023/12/28 02:54:20;;;;;;;38.73;17.80;;;-2.20;99.90;;;;;;4193347;28;20321;-59
2023/12/28 02:56:21;;;;;;;38.53;18.37;;;-2.10;99.90;;;;;;4193751;28;20330;-60
2023/12/28 02:58:22;;;;;;;34.40;17.17;;;-2.20;99.90;;;;;;4193869;28;20361;-59
2023/12/28 03:00:23;;;;;;;36.97;17.77;;;-2.20;99.90;;;;;;4192784;28;20319;-60
2023/12/28 03:02:24;;;;;;;41.70;18.90;;;-2.20;99.90;;;;;;4193884;28;20307;-60
2023/12/28 03:04:25;;;;;;;40.47;19.27;;;-2.20;99.90;;;;;;4193080;28;20318;-60
2023/12/28 03:06:26;;;;;;;40.17;19.60;;;-2.20;99.90;;;;;;4194482;28;20249;-59
2023/12/28 03:08:27;;;;;;;36.80;18.60;;;-2.20;99.90;;;;;;4192563;28;20265;-60
2023/12/28 03:10:29;;;;;;;38.43;20.20;;;-2.20;99.90;;;;;;4193848;28;20297;-60
2023/12/28 03:12:30;;;;;;;41.30;19.50;;;-2.20;99.90;;;;;;4192771;28;20649;-60
2023/12/28 03:14:32;;;;;;;33.17;16.37;;;-2.20;99.90;;;;;;4193879;28;20278;-59
2023/12/28 03:16:33;;;;;;;29.23;15.47;;;-2.20;99.90;;;;;;4192657;28;20331;-60
2023/12/28 03:18:34;;;;;;;31.63;15.40;;;-2.20;99.90;;;;;;4194258;28;20331;-59
2023/12/28 03:20:35;;;;;;;24.90;13.87;;;-2.20;99.90;;;;;;4192642;28;20354;-60
2023/12/28 03:22:36;;;;;;;27.07;13.63;;;-2.20;99.90;;;;;;4194198;28;20277;-60
2023/12/28 03:24:38;;;;;;;25.33;13.07;;;-2.20;99.90;;;;;;4192735;28;20257;-60
2023/12/28 03:26:39;;;;;;;32.13;16.17;;;-2.10;99.90;;;;;;4193166;28;20304;-59
2023/12/28 03:28:40;;;;;;;28.77;14.87;;;-2.20;99.90;;;;;;4192658;28;20277;-59
2023/12/28 03:30:41;;;;;;;34.47;16.53;;;-2.10;99.90;;;;;;4192605;28;20774;-58
2023/12/28 03:32:43;;;;;;;37.83;16.40;;;-2.20;99.90;;;;;;4193722;28;20729;-60
2023/12/28 03:34:44;;;;;;;30.87;15.63;;;-2.20;99.90;;;;;;4192054;28;20331;-60
2023/12/28 03:36:45;;;;;;;36.50;17.00;;;-2.20;99.90;;;;;;4193921;28;20706;-59
2023/12/28 03:38:46;;;;;;;35.30;17.37;;;-2.20;99.90;;;;;;4191858;28;20383;-60
2023/12/28 03:40:49;;;;;;;38.43;17.90;;;-2.20;99.90;;;;;;4193816;28;20721;-59
2023/12/28 03:42:51;;;;;;;35.80;18.77;;;-2.20;99.90;;;;;;4192179;28;20265;-59
2023/12/28 03:44:52;;;;;;;44.40;19.70;;;-2.20;99.90;;;;;;4193702;28;20269;-59
2023/12/28 03:46:53;;;;;;;45.70;19.73;;;-2.30;99.90;;;;;;4192191;28;20261;-59
2023/12/28 03:48:54;;;;;;;38.77;18.43;;;-2.30;99.90;;;;;;4193814;28;20330;-61
2023/12/28 03:50:55;;;;;;;36.50;18.97;;;-2.30;99.90;;;;;;4191623;28;20307;-60
2023/12/28 03:52:58;;;;;;;38.20;19.00;;;-2.30;99.90;;;;;;4193802;28;20323;-60
2023/12/28 03:54:59;;;;;;;43.40;20.33;;;-2.30;99.90;;;;;;4192444;28;20717;-59
2023/12/28 03:57:00;;;;;;;35.10;19.13;;;-2.30;99.90;;;;;;4193007;28;20249;-61
2023/12/28 03:59:02;;;;;;;42.03;20.00;;;-2.30;99.90;;;;;;4192618;28;20273;-60
2023/12/28 04:01:03;;;;;;;38.80;20.20;;;-2.20;99.90;;;;;;4192307;28;20319;-60
2023/12/28 04:03:04;;;;;;;43.67;19.97;;;-2.20;99.90;;;;;;4193298;28;20293;-59
2023/12/28 04:05:07;;;;;;;36.70;19.07;;;-2.20;99.90;;;;;;4191630;28;20635;-60
2023/12/28 04:07:08;;;;;;;34.87;18.47;;;-2.20;99.90;;;;;;4193216;28;20729;-60
2023/12/28 04:09:11;;;;;;;37.30;17.37;;;-2.30;99.90;;;;;;4191974;28;20257;-60
2023/12/28 04:11:13;;;;;;;35.30;17.57;;;-2.30;99.90;;;;;;4193247;28;20262;-59
2023/12/28 04:13:14;;;;;;;39.57;18.53;;;-2.30;99.90;;;;;;4192047;28;20331;-60
2023/12/28 04:15:15;;;;;;;34.57;17.47;;;-2.40;99.90;;;;;;4193582;28;20269;-59
2023/12/28 04:17:17;;;;;;;31.93;17.47;;;-2.40;99.90;;;;;;4191536;28;20346;-60
2023/12/28 04:19:18;;;;;;;38.50;18.97;;;-2.40;99.90;;;;;;4193619;28;20277;-60
2023/12/28 04:21:19;;;;;;;39.17;18.67;;;-2.40;99.90;;;;;;4191902;28;20277;-60
2023/12/28 04:23:20;;;;;;;34.27;16.97;;;-2.40;99.90;;;;;;4193601;28;20277;-59
2023/12/28 04:25:22;;;;;;;38.93;17.07;;;-2.40;99.90;;;;;;4192206;28;20249;-61
2023/12/28 04:27:23;;;;;;;35.67;16.60;;;-2.40;99.90;;;;;;4192421;28;20257;-61
2023/12/28 04:29:24;;;;;;;31.53;15.97;;;-2.40;99.90;;;;;;4192473;28;20346;-60
2023/12/28 04:31:25;;;;;;;37.43;18.47;;;-2.50;99.90;;;;;;4192198;28;20265;-61
2023/12/28 04:33:26;;;;;;;36.97;16.90;;;-2.50;99.90;;;;;;4192961;28;20287;-60
2023/12/28 04:35:28;;;;;;;35.50;18.03;;;-2.50;99.90;;;;;;4192957;28;20331;-60
2023/12/28 04:37:30;;;;;;;33.93;16.87;;;-2.50;99.90;;;;;;4196022;28;20672;-60
2023/12/28 04:39:31;;;;;;;36.40;17.37;;;-2.50;99.90;;;;;;4194708;28;20766;-61
2023/12/28 04:41:32;;;;;;;25.27;15.07;;;-2.60;99.90;;;;;;4196689;28;20652;-60
2023/12/28 04:43:33;;;;;;;35.37;16.77;;;-2.50;99.90;;;;;;4194866;28;20684;-61
2023/12/28 04:45:35;;;;;;;30.03;14.33;;;-2.60;99.90;;;;;;4195783;28;20281;-60
2023/12/28 04:47:36;;;;;;;30.17;14.43;;;-2.60;99.90;;;;;;4194960;28;20266;-59
2023/12/28 04:49:37;;;;;;;36.60;16.10;;;-2.70;99.90;;;;;;4195951;28;20281;-60
2023/12/28 04:51:45;;;;;;;37.30;18.50;;;-2.70;99.90;;;;;;4195233;28;20668;-60
2023/12/28 04:53:46;;;;;;;34.33;17.23;;;-2.70;99.90;;;;;;4196699;28;20273;-60
2023/12/28 04:55:47;;;;;;;39.07;17.40;;;-2.90;99.90;;;;;;4194946;28;20338;-61
2023/12/28 04:57:48;;;;;;;38.97;16.37;;;-3.00;99.90;;;;;;4195549;28;20273;-60
2023/12/28 04:59:49;;;;;;;39.33;18.03;;;-3.00;99.90;;;;;;4195230;28;20323;-59
2023/12/28 05:01:50;;;;;;;39.23;18.17;;;-3.10;99.90;;;;;;4195442;28;20334;-61
2023/12/28 05:03:52;;;;;;;46.47;18.47;;;-3.10;99.90;;;;;;4195072;28;20773;-61
2023/12/28 05:05:53;;;;;;;38.23;17.93;;;-3.10;99.90;;;;;;4194790;28;20254;-59
2023/12/28 05:07:54;;;;;;;50.83;19.60;;;-3.20;99.90;;;;;;4196089;28;20335;-60
2023/12/28 05:09:55;;;;;;;48.33;22.43;;;-3.10;99.90;;;;;;4194451;28;20305;-60
2023/12/28 05:11:56;;;;;;;46.77;22.13;;;-3.20;99.90;;;;;;4196083;28;20265;-60
2023/12/28 05:13:57;;;;;;;42.03;19.70;;;-3.20;99.90;;;;;;4194009;28;20269;-60
2023/12/28 05:15:59;;;;;;;44.23;21.90;;;-3.20;99.90;;;;;;4195972;28;21250;-60
2023/12/28 05:18:00;;;;;;;51.53;22.57;;;-3.20;99.90;;;;;;4194463;28;20270;-61
2023/12/28 05:20:01;;;;;;;38.93;19.90;;;-3.10;99.90;;;;;;4195680;28;20273;-60
2023/12/28 05:22:06;;;;;;;47.23;21.00;;;-3.00;99.90;;;;;;4194528;28;20819;-61
2023/12/28 05:24:07;;;;;;;40.73;21.30;;;-3.00;99.90;;;;;;4196160;28;20655;-61
2023/12/28 05:26:09;;;;;;;48.47;23.57;;;-3.00;99.90;;;;;;4193999;28;20660;-60
2023/12/28 05:28:10;;;;;;;40.17;21.93;;;-3.00;99.90;;;;;;4195598;28;20315;-60
2023/12/28 05:30:11;;;;;;;46.20;21.07;;;-3.00;99.90;;;;;;4194462;28;20281;-61
2023/12/28 05:32:12;;;;;;;33.57;18.13;;;-3.10;99.90;;;;;;4194806;28;20278;-61
2023/12/28 05:34:14;;;;;;;39.10;19.90;;;-3.10;99.90;;;;;;4194985;28;21232;-61
2023/12/28 05:36:15;;;;;;;37.13;20.80;;;-3.20;99.90;;;;;;4194097;28;20311;-61
2023/12/28 05:38:17;;;;;;;38.43;21.03;;;-3.20;99.90;;;;;;4195502;28;20779;-60
2023/12/28 05:40:18;;;;;;;47.87;24.13;;;-3.20;99.90;;;;;;4193982;28;20323;-60
2023/12/28 05:42:19;;;;;;;58.93;24.17;;;-3.30;99.90;;;;;;4195662;28;20331;-60
2023/12/28 05:44:21;;;;;;;58.50;21.80;;;-3.30;99.90;;;;;;4193566;28;20254;-61
2023/12/28 05:46:22;;;;;;;52.27;23.17;;;-3.30;99.90;;;;;;4195547;28;20288;-61
2023/12/28 05:48:23;;;;;;;46.10;21.37;;;-3.30;99.90;;;;;;4193909;28;20355;-60
2023/12/28 05:50:24;;;;;;;61.30;22.83;;;-3.40;99.90;;;;;;4195458;28;20301;-60
2023/12/28 05:52:25;;;;;;;57.10;22.87;;;-3.40;99.90;;;;;;4194276;28;20319;-60
2023/12/28 05:54:27;;;;;;;51.80;23.20;;;-3.40;99.90;;;;;;4195211;28;20266;-60
2023/12/28 05:56:28;;;;;;;50.17;22.43;;;-3.30;99.90;;;;;;4192448;28;20291;-60
2023/12/28 05:58:29;;;;;;;56.67;23.20;;;-3.30;99.90;;;;;;4194598;28;20266;-60
2023/12/28 06:00:30;;;;;;;55.23;21.67;;;-3.20;99.90;;;;;;4194141;28;20319;-60
2023/12/28 06:02:32;;;;;;;58.67;24.23;;;-3.20;99.90;;;;;;4194509;28;20261;-61
2023/12/28 06:04:33;;;;;;;56.53;22.77;;;-3.10;99.90;;;;;;4194586;28;20359;-60
2023/12/28 06:06:36;;;;;;;80.23;29.80;;;-3.20;99.90;;;;;;4193686;28;20330;-60
2023/12/28 06:08:37;;;;;;;79.00;27.90;;;-3.20;99.90;;;;;;4194807;28;20741;-60
2023/12/28 06:10:38;;;;;;;87.03;28.27;;;-3.20;99.90;;;;;;4193511;28;20285;-61
2023/12/28 06:12:39;;;;;;;172.60;29.10;;;-3.30;99.90;;;;;;4195223;28;20389;-60
2023/12/28 06:14:41;;;;;;;101.43;27.00;;;-3.30;99.90;;;;;;4193429;28;20281;-59
2023/12/28 06:16:43;;;;;;;77.00;24.80;;;-3.30;99.90;;;;;;4194869;28;20603;-61
2023/12/28 06:18:44;;;;;;;75.67;26.50;;;-3.30;99.90;;;;;;4193505;28;20307;-60
2023/12/28 06:20:45;;;;;;;97.07;28.30;;;-3.20;99.90;;;;;;4195127;28;20406;-60
2023/12/28 06:22:48;;;;;;;69.10;25.40;;;-3.30;99.90;;;;;;4193691;28;20307;-59
2023/12/28 06:24:49;;;;;;;74.97;27.77;;;-3.30;99.90;;;;;;4194644;28;20261;-60
2023/12/28 06:26:51;;;;;;;144.87;27.63;;;-3.30;99.90;;;;;;4192841;28;20327;-60
2023/12/28 06:28:52;;;;;;;95.13;26.17;;;-3.30;99.90;;;;;;4194529;28;20637;-59
2023/12/28 06:30:53;;;;;;;109.10;25.93;;;-3.40;99.90;;;;;;4193363;28;20327;-60
2023/12/28 06:32:54;;;;;;;99.63;29.30;;;-3.40;99.90;;;;;;4192288;28;20286;-60
2023/12/28 06:34:56;;;;;;;114.10;31.80;;;-3.40;99.90;;;;;;4194166;28;20275;-60
2023/12/28 06:36:57;;;;;;;92.97;30.73;;;-3.40;99.90;;;;;;4193063;28;20587;-61
2023/12/28 06:38:59;;;;;;;116.17;33.20;;;-3.40;99.90;;;;;;4193866;28;20316;-60
2023/12/28 06:41:00;;;;;;;113.90;34.23;;;-3.40;99.90;;;;;;4192897;28;20269;-61
2023/12/28 06:43:01;;;;;;;81.30;30.53;;;-3.40;99.90;;;;;;4194268;28;20338;-59
2023/12/28 06:45:03;;;;;;;129.03;33.83;;;-3.40;99.90;;;;;;4193122;28;20342;-62
2023/12/28 06:47:04;;;;;;;75.77;29.50;;;-3.40;99.90;;;;;;4194577;28;20311;-60
2023/12/28 06:49:05;;;;;;;124.57;36.80;;;-3.40;99.90;;;;;;4192855;28;20687;-60
2023/12/28 06:51:07;;;;;;;148.73;38.63;;;-3.40;99.90;;;;;;4193090;28;20688;-60
2023/12/28 06:53:08;;;;;;;93.33;34.70;;;-3.40;99.90;;;;;;4193244;28;20737;-60
2023/12/28 06:55:09;;;;;;;175.27;36.80;;;-3.40;99.90;;;;;;4194102;28;20731;-60
2023/12/28 06:57:10;;;;;;;143.37;37.57;;;-3.40;99.90;;;;;;4192918;28;20326;-61
2023/12/28 06:59:12;;;;;;;82.97;31.20;;;-3.30;99.90;;;;;;4193603;28;20668;-61
2023/12/28 07:01:13;;;;;;;95.90;33.37;;;-3.40;99.90;;;;;;4192367;28;20815;-61
2023/12/28 07:03:14;;;;;;;63.70;29.47;;;-3.30;99.90;;;;;;4193053;28;20677;-60
2023/12/28 07:05:15;;;;;;;72.77;28.60;;;-3.30;99.90;;;;;;4193255;28;20315;-60
2023/12/28 07:07:16;;;;;;;76.73;28.43;;;-3.20;99.90;;;;;;4193020;28;20273;-61
2023/12/28 07:09:18;;;;;;;63.10;27.23;;;-3.20;99.90;;;;;;4193598;28;20721;-61
2023/12/28 07:11:19;;;;;;;54.87;25.37;;;-3.10;99.90;;;;;;4192458;28;20787;-61
2023/12/28 07:13:20;;;;;;;65.13;26.60;;;-3.10;99.90;;;;;;4193980;28;20277;-61
2023/12/28 07:15:21;;;;;;;58.93;26.97;;;-3.00;99.90;;;;;;4192666;28;20903;-61
2023/12/28 07:17:22;;;;;;;65.83;29.47;;;-2.90;99.90;;;;;;4193662;28;20265;-61
2023/12/28 07:19:23;;;;;;;60.53;28.33;;;-2.80;99.90;;;;;;4192007;28;20776;-61
2023/12/28 07:21:25;;;;;;;56.43;28.47;;;-2.80;99.90;;;;;;4194141;28;20548;-60
2023/12/28 07:23:27;;;;;;;66.73;28.30;;;-2.60;99.90;;;;;;4191998;28;20741;-61
2023/12/28 07:25:28;;;;;;;59.83;28.37;;;-2.50;99.90;;;;;;4193697;28;20277;-61
2023/12/28 07:27:29;;;;;;;65.30;28.83;;;-2.40;99.90;;;;;;4192359;28;20311;-62
2023/12/28 07:29:30;;;;;;;58.33;28.00;;;-2.30;99.90;;;;;;4193819;28;20787;-61
2023/12/28 07:31:31;;;;;;;71.77;31.33;;;-2.20;99.90;;;;;;4191765;28;20285;-61
2023/12/28 07:33:33;;;;;;;66.10;31.77;;;-2.10;99.90;;;;;;4193199;28;20323;-62
2023/12/28 07:35:34;;;;;;;82.77;36.70;;;-2.00;99.90;;;;;;4192825;28;20246;-61
2023/12/28 07:37:35;;;;;;;69.40;33.93;;;-1.90;99.90;;;;;;4192586;28;20402;-61
2023/12/28 07:39:36;;;;;;;69.53;33.53;;;-1.70;99.90;;;;;;4192966;28;20277;-61
2023/12/28 07:41:37;;;;;;;70.60;32.80;;;-1.60;99.90;;;;;;4190844;28;20691;-61
2023/12/28 07:43:39;;;;;;;57.43;25.93;;;-1.60;99.90;;;;;;4193324;28;20689;-60
2023/12/28 07:45:41;;;;;;;56.93;25.77;;;-1.50;99.90;;;;;;4192110;28;20344;-61
2023/12/28 07:47:42;;;;;;;61.93;27.00;;;-1.60;99.90;;;;;;4193321;28;20334;-61
2023/12/28 07:49:44;;;;;;;65.73;28.80;;;-1.80;99.90;;;;;;4191529;28;20281;-61
2023/12/28 07:51:45;;;;;;;70.10;28.57;;;-1.80;99.90;;;;;;4193238;28;20378;-61
2023/12/28 07:53:46;;;;;;;67.33;28.37;;;-1.90;99.90;;;;;;4192176;28;20281;-61
2023/12/28 07:55:47;;;;;;;66.17;29.40;;;-1.90;99.90;;;;;;4193835;28;20262;-61
2023/12/28 07:57:49;;;;;;;82.40;31.30;;;-1.80;99.90;;;;;;4191477;28;20326;-61
2023/12/28 07:59:50;;;;;;;73.17;30.37;;;-1.60;99.90;;;;;;4193500;28;20273;-60
2023/12/28 08:01:51;;;;;;;67.90;27.77;;;-1.60;99.90;;;;;;4192090;28;20748;-61
2023/12/28 08:03:53;;;;;;;73.20;28.27;;;-1.60;99.90;;;;;;4192673;28;20289;-61
2023/12/28 08:05:55;;;;;;;63.23;27.10;;;-1.60;99.90;;;;;;4192516;28;20862;-62
2023/12/28 08:07:56;;;;;;;71.27;29.40;;;-1.60;99.90;;;;;;4192168;28;20262;-60
2023/12/28 08:09:57;;;;;;;68.57;27.97;;;-1.50;99.90;;;;;;4191992;28;20368;-59
2023/12/28 08:11:58;;;;;;;72.47;29.60;;;-1.40;99.90;;;;;;4191932;28;20343;-61
2023/12/28 08:13:59;;;;;;;70.03;28.20;;;-1.40;99.90;;;;;;4193484;28;20261;-61
2023/12/28 08:16:01;;;;;;;79.73;28.10;;;-1.30;99.90;;;;;;4191747;28;20350;-61
2023/12/28 08:18:02;;;;;;;60.83;25.67;;;-1.20;99.90;;;;;;4193050;28;20274;-61
2023/12/28 08:20:04;;;;;;;51.90;22.60;;;-1.20;99.90;;;;;;4191086;28;20845;-60
2023/12/28 08:22:06;;;;;;;49.83;22.57;;;-1.10;99.90;;;;;;4192684;28;20359;-61
2023/12/28 08:24:07;;;;;;;51.00;24.53;;;-1.10;99.90;;;;;;4192011;28;20660;-60
2023/12/28 08:26:08;;;;;;;49.23;22.63;;;-1.10;99.90;;;;;;4192480;28;20265;-61
2023/12/28 08:28:10;;;;;;;68.00;26.03;;;-1.10;99.90;;;;;;4191662;28;20261;-61
2023/12/28 08:30:11;;;;;;;65.43;27.73;;;-1.20;99.90;;;;;;4193204;28;20384;-61
2023/12/28 08:32:12;;;;;;;61.57;25.83;;;-1.20;99.90;;;;;;4191346;28;20277;-61
2023/12/28 08:34:15;;;;;;;67.07;32.43;;;-1.10;99.90;;;;;;4191523;28;20273;-59
2023/12/28 08:36:17;;;;;;;70.00;32.93;;;-1.10;99.90;;;;;;4192383;28;20657;-61
2023/12/28 08:38:18;;;;;;;59.27;28.50;;;-1.00;99.90;;;;;;4192304;28;20249;-60
2023/12/28 08:40:19;;;;;;;70.23;30.93;;;-0.90;99.90;;;;;;4192459;28;20315;-59
2023/12/28 08:42:21;;;;;;;59.60;27.93;;;-0.90;99.90;;;;;;4191836;28;20281;-61
2023/12/28 08:44:22;;;;;;;64.67;29.30;;;-0.70;99.90;;;;;;4192759;28;20419;-62
2023/12/28 08:46:26;;;;;;;73.67;31.33;;;-0.60;99.90;;;;;;4191471;28;20304;-61
2023/12/28 08:48:27;;;;;;;70.10;30.90;;;-0.50;99.90;;;;;;4193189;28;20678;-61
2023/12/28 08:50:28;;;;;;;73.77;32.00;;;-0.40;99.90;;;;;;4190671;28;20318;-58
2023/12/28 08:52:30;;;;;;;74.30;34.33;;;-0.40;99.90;;;;;;4193150;28;20748;-61
2023/12/28 08:54:31;;;;;;;73.97;32.73;;;-0.50;99.90;;;;;;4191759;28;20683;-61
2023/12/28 08:56:32;;;;;;;68.27;31.10;;;-0.50;99.90;;;;;;4192891;28;20277;-61
2023/12/28 08:58:33;;;;;;;77.73;29.80;;;-0.60;99.90;;;;;;4191014;28;20299;-61
2023/12/28 09:00:34;;;;;;;70.30;31.47;;;-0.60;99.90;;;;;;4193208;28;20273;-62
2023/12/28 09:02:36;;;;;;;66.63;30.60;;;-0.70;99.90;;;;;;4190803;28;20285;-62
2023/12/28 09:04:38;;;;;;;54.00;29.13;;;-0.60;99.90;;;;;;4192541;28;20258;-61
2023/12/28 09:06:40;;;;;;;60.07;30.77;;;-0.60;99.90;;;;;;4191486;28;20315;-62
2023/12/28 09:08:43;;;;;;;60.43;29.57;;;-0.60;99.90;;;;;;4192079;28;20269;-61
2023/12/28 09:10:44;;;;;;;57.20;29.33;;;-0.50;99.90;;;;;;4191457;28;20305;-60
2023/12/28 09:12:45;;;;;;;56.33;28.40;;;-0.50;99.90;;;;;;4191672;28;20281;-61
2023/12/28 09:14:46;;;;;;;50.73;26.43;;;-0.50;99.90;;;;;;4192062;28;20281;-61
2023/12/28 09:16:48;;;;;;;46.30;25.37;;;-0.40;99.90;;;;;;4191088;28;20323;-61
2023/12/28 09:18:49;;;;;;;52.60;25.13;;;-0.30;99.90;;;;;;4192898;28;20811;-60
2023/12/28 09:20:50;;;;;;;49.43;25.37;;;-0.10;99.90;;;;;;4191240;28;20262;-62
2023/12/28 09:22:56;;;;;;;51.60;24.03;;;-0.10;99.90;;;;;;4195809;28;20261;-62
2023/12/28 09:24:57;;;;;;;62.17;28.00;;;0.00;99.90;;;;;;4194172;28;20278;-59
2023/12/28 09:26:58;;;;;;;54.73;25.97;;;0.00;99.90;;;;;;4195675;28;20407;-61
2023/12/28 09:28:59;;;;;;;61.93;25.47;;;-0.10;99.90;;;;;;4194102;28;20299;-61
2023/12/28 09:31:04;;;;;;;75.83;24.80;;;-0.20;99.90;;;;;;4194124;28;20292;-61
2023/12/28 09:33:05;;;;;;;59.17;23.60;;;-0.40;99.90;;;;;;4194015;28;20305;-60
2023/12/28 09:35:07;;;;;;;60.97;24.37;;;-0.50;99.90;;;;;;4195103;28;20379;-61
2023/12/28 09:37:08;;;;;;;87.77;27.33;;;-0.60;99.90;;;;;;4194162;28;20304;-60
2023/12/28 09:39:09;;;;;;;89.87;28.43;;;-0.70;99.90;;;;;;4194718;28;20649;-61
2023/12/28 09:41:15;;;;;;;54.00;26.10;;;-0.80;99.90;;;;;;4194351;28;20307;-60
2023/12/28 09:43:26;;;;;;;79.50;24.70;;;-0.80;99.90;;;;;;4194517;28;20295;-60
2023/12/28 09:45:27;;;;;;;45.60;20.87;;;-0.80;99.90;;;;;;4194261;28;20279;-60
2023/12/28 09:47:28;;;;;;;92.97;25.80;;;-0.90;99.90;;;;;;4194353;28;20897;-60
2023/12/28 09:49:30;;;;;;;49.30;22.13;;;-0.90;99.90;;;;;;4195154;28;20311;-60
2023/12/28 09:51:32;;;;;;;47.20;21.17;;;-0.90;99.90;;;;;;4193237;28;20343;-60
2023/12/28 09:53:33;;;;;;;46.13;24.37;;;-1.00;99.90;;;;;;4195522;28;20680;-60
2023/12/28 09:55:34;;;;;;;58.47;22.93;;;-1.10;99.90;;;;;;4193133;28;20321;-60
2023/12/28 09:57:37;;;;;;;58.63;23.07;;;-1.00;99.90;;;;;;4195100;28;20281;-58
2023/12/28 09:59:39;;;;;;;49.77;19.93;;;-1.00;99.90;;;;;;4193489;28;20281;-60
2023/12/28 10:01:40;;;;;;;51.63;22.37;;;-0.90;99.90;;;;;;4195064;28;20274;-61
2023/12/28 10:03:41;;;;;;;46.53;21.33;;;-0.80;99.90;;;;;;4193077;28;20834;-61
2023/12/28 10:05:45;;;;;;;106.07;24.70;;;-0.70;99.90;;;;;;4194059;28;20331;-59
2023/12/28 10:07:48;;;;;;;53.13;21.63;;;-0.70;99.90;;;;;;4192981;28;20277;-60
2023/12/28 10:09:49;;;;;;;225.17;28.67;;;-0.80;99.90;;;;;;4194375;28;20269;-61
2023/12/28 10:11:50;;;;;;;174.70;25.43;;;-0.80;99.90;;;;;;4193303;28;20309;-61
2023/12/28 10:13:53;;;;;;;140.80;26.83;;;-0.80;99.90;;;;;;4194728;28;20361;-61
2023/12/28 10:15:58;;;;;;;165.80;29.00;;;-0.80;99.90;;;;;;4193645;28;20269;-60